sensor_id;sensor_type;location;lat;lon;timestamp;pressure;altitude;pressure_sealevel;temperature;humidity
69784;BME280;57054;51.978;4.498;2022-12-18T00:01:30;102777.63;;;-1.11;100.00
69784;BME280;57054;51.978;4.498;2022-12-18T00:03:56;102787.91;;;-1.11;100.00
69784;BME280;57054;51.978;4.498;2022-12-18T00:06:22;102786.16;;;-1.12;100.00
69784;BME280;57054;51.978;4.498;2022-12-18T00:08:47;102790.41;;;-1.13;100.00
69784;BME280;57054;51.978;4.498;2022-12-18T00:11:14;102786.09;;;-1.14;100.00
69784;BME280;57054;51.978;4.498;2022-12-18T00:13:40;102792.06;;;-1.15;100.00
69784;BME280;57054;51.978;4.498;2022-12-18T00:16:07;102798.91;;;-1.16;100.00
69784;BME280;57054;51.978;4.498;2022-12-18T00:18:32;102795.47;;;-1.16;100.00
69784;BME280;57054;51.978;4.498;2022-12-18T00:20:58;102786.81;;;-1.18;100.00
69784;BME280;57054;51.978;4.498;2022-12-18T00:23:24;102778.19;;;-1.19;100.00
69784;BME280;57054;51.978;4.498;2022-12-18T00:25:49;102779.91;;;-1.19;100.00
69784;BME280;57054;51.978;4.498;2022-12-18T00:28:14;102779.91;;;-1.19;100.00
69784;BME280;57054;51.978;4.498;2022-12-18T00:30:39;102779.91;;;-1.19;100.00
69784;BME280;57054;51.978;4.498;2022-12-18T00:33:05;102781.59;;;-1.20;100.00
69784;BME280;57054;51.978;4.498;2022-12-18T00:35:31;102777.31;;;-1.19;100.00
69784;BME280;57054;51.978;4.498;2022-12-18T00:37:56;102779.09;;;-1.18;100.00
69784;BME280;57054;51.978;4.498;2022-12-18T00:40:21;102779.03;;;-1.20;100.00
69784;BME280;57054;51.978;4.498;2022-12-18T00:42:46;102779.03;;;-1.20;100.00
69784;BME280;57054;51.978;4.498;2022-12-18T00:45:21;102773.00;;;-1.20;100.00
69784;BME280;57054;51.978;4.498;2022-12-18T00:47:47;102783.28;;;-1.20;100.00
69784;BME280;57054;51.978;4.498;2022-12-18T00:50:12;102784.09;;;-1.21;100.00
69784;BME280;57054;51.978;4.498;2022-12-18T00:52:37;102792.69;;;-1.21;100.00
69784;BME280;57054;51.978;4.498;2022-12-18T00:55:03;102783.25;;;-1.22;100.00
69784;BME280;57054;51.978;4.498;2022-12-18T00:57:28;102792.63;;;-1.22;100.00
69784;BME280;57054;51.978;4.498;2022-12-18T00:59:53;102786.63;;;-1.23;100.00
69784;BME280;57054;51.978;4.498;2022-12-18T01:02:18;102783.19;;;-1.23;100.00
69784;BME280;57054;51.978;4.498;2022-12-18T01:04:44;102786.63;;;-1.23;100.00
69784;BME280;57054;51.978;4.498;2022-12-18T01:07:09;102788.25;;;-1.25;100.00
69784;BME280;57054;51.978;4.498;2022-12-18T01:09:34;102780.53;;;-1.25;100.00
69784;BME280;57054;51.978;4.498;2022-12-18T01:11:59;102788.31;;;-1.23;100.00
69784;BME280;57054;51.978;4.498;2022-12-18T01:14:24;102788.25;;;-1.25;100.00
69784;BME280;57054;51.978;4.498;2022-12-18T01:16:50;102797.66;;;-1.25;100.00
69784;BME280;57054;51.978;4.498;2022-12-18T01:19:15;102799.41;;;-1.24;100.00
69784;BME280;57054;51.978;4.498;2022-12-18T01:21:40;102800.19;;;-1.27;100.00
69784;BME280;57054;51.978;4.498;2022-12-18T01:24:06;102805.31;;;-1.27;100.00
69784;BME280;57054;51.978;4.498;2022-12-18T01:26:31;102794.97;;;-1.28;100.00
69784;BME280;57054;51.978;4.498;2022-12-18T01:28:57;102792.41;;;-1.28;100.00
69784;BME280;57054;51.978;4.498;2022-12-18T01:31:24;102798.34;;;-1.29;100.00
69784;BME280;57054;51.978;4.498;2022-12-18T01:33:50;102803.44;;;-1.31;100.00
69784;BME280;57054;51.978;4.498;2022-12-18T01:36:23;102805.97;;;-1.32;100.00
69784;BME280;57054;51.978;4.498;2022-12-18T01:38:48;102812.75;;;-1.33;100.00
69784;BME280;57054;51.978;4.498;2022-12-18T01:41:15;102806.75;;;-1.33;100.00
69784;BME280;57054;51.978;4.498;2022-12-18T01:43:41;102811.03;;;-1.34;100.00
69784;BME280;57054;51.978;4.498;2022-12-18T01:46:06;102809.25;;;-1.35;100.00
69784;BME280;57054;51.978;4.498;2022-12-18T01:48:32;102815.25;;;-1.36;100.00
69784;BME280;57054;51.978;4.498;2022-12-18T01:50:57;102822.00;;;-1.38;100.00
69784;BME280;57054;51.978;4.498;2022-12-18T01:53:22;102815.16;;;-1.38;100.00
69784;BME280;57054;51.978;4.498;2022-12-18T01:55:53;102824.53;;;-1.40;100.00
69784;BME280;57054;51.978;4.498;2022-12-18T01:58:19;102817.59;;;-1.41;100.00
69784;BME280;57054;51.978;4.498;2022-12-18T02:03:49;102827.03;;;-1.41;100.00
69784;BME280;57054;51.978;4.498;2022-12-18T02:06:23;102827.88;;;-1.41;100.00
69784;BME280;57054;51.978;4.498;2022-12-18T02:11:27;102822.69;;;-1.42;100.00
69784;BME280;57054;51.978;4.498;2022-12-18T02:19:13;102813.16;;;-1.45;100.00
69784;BME280;57054;51.978;4.498;2022-12-18T02:21:44;102806.25;;;-1.46;100.00
69784;BME280;57054;51.978;4.498;2022-12-18T02:24:18;102801.94;;;-1.47;100.00
69784;BME280;57054;51.978;4.498;2022-12-18T02:26:56;102813.03;;;-1.48;100.00
69784;BME280;57054;51.978;4.498;2022-12-18T02:29:29;102816.44;;;-1.49;100.00
69784;BME280;57054;51.978;4.498;2022-12-18T02:31:57;102824.06;;;-1.50;100.00
69784;BME280;57054;51.978;4.498;2022-12-18T02:34:27;102821.50;;;-1.50;100.00
69784;BME280;57054;51.978;4.498;2022-12-18T02:36:53;102820.56;;;-1.52;100.00
69784;BME280;57054;51.978;4.498;2022-12-18T02:39:19;102820.56;;;-1.52;100.00
69784;BME280;57054;51.978;4.498;2022-12-18T02:41:46;102811.09;;;-1.53;100.00
69784;BME280;57054;51.978;4.498;2022-12-18T02:44:12;102807.66;;;-1.54;100.00
69784;BME280;57054;51.978;4.498;2022-12-18T02:46:56;102802.44;;;-1.56;100.00
69784;BME280;57054;51.978;4.498;2022-12-18T02:49:26;102792.09;;;-1.57;100.00
69784;BME280;57054;51.978;4.498;2022-12-18T02:52:12;102785.22;;;-1.58;100.00
69784;BME280;57054;51.978;4.498;2022-12-18T02:54:54;102786.03;;;-1.59;100.00
69784;BME280;57054;51.978;4.498;2022-12-18T02:57:27;102782.59;;;-1.60;100.00
69784;BME280;57054;51.978;4.498;2022-12-18T03:02:45;102763.66;;;-1.62;100.00
69784;BME280;57054;51.978;4.498;2022-12-18T03:05:15;102764.41;;;-1.64;100.00
69784;BME280;57054;51.978;4.498;2022-12-18T03:10:11;102760.91;;;-1.66;100.00
69784;BME280;57054;51.978;4.498;2022-12-18T03:12:40;102755.69;;;-1.68;100.00
69784;BME280;57054;51.978;4.498;2022-12-18T03:15:41;102755.59;;;-1.71;100.00
69784;BME280;57054;51.978;4.498;2022-12-18T03:18:00;102761.47;;;-1.74;100.00
69784;BME280;57054;51.978;4.498;2022-12-18T03:20:28;102755.31;;;-1.77;100.00
69784;BME280;57054;51.978;4.498;2022-12-18T03:22:57;102755.25;;;-1.79;100.00
69784;BME280;57054;51.978;4.498;2022-12-18T03:25:24;102754.31;;;-1.81;100.00
69784;BME280;57054;51.978;4.498;2022-12-18T03:27:51;102753.44;;;-1.81;100.00
69784;BME280;57054;51.978;4.498;2022-12-18T03:30:19;102745.69;;;-1.83;100.00
69784;BME280;57054;51.978;4.498;2022-12-18T03:32:47;102749.94;;;-1.83;100.00
69784;BME280;57054;51.978;4.498;2022-12-18T03:35:14;102746.44;;;-1.85;100.00
69784;BME280;57054;51.978;4.498;2022-12-18T03:37:41;102747.31;;;-1.85;100.00
69784;BME280;57054;51.978;4.498;2022-12-18T03:40:07;102750.69;;;-1.86;100.00
69784;BME280;57054;51.978;4.498;2022-12-18T03:42:37;102755.72;;;-1.89;100.00
69784;BME280;57054;51.978;4.498;2022-12-18T03:47:39;102756.38;;;-1.93;100.00
69784;BME280;57054;51.978;4.498;2022-12-18T03:50:27;102754.56;;;-1.96;100.00
69784;BME280;57054;51.978;4.498;2022-12-18T03:52:57;102751.06;;;-1.98;100.00
69784;BME280;57054;51.978;4.498;2022-12-18T03:55:24;102751.78;;;-2.00;100.00
69784;BME280;57054;51.978;4.498;2022-12-18T03:57:51;102752.63;;;-2.01;100.00
69784;BME280;57054;51.978;4.498;2022-12-18T04:00:17;102754.25;;;-2.03;100.00
69784;BME280;57054;51.978;4.498;2022-12-18T04:02:44;102749.91;;;-2.04;100.00
69784;BME280;57054;51.978;4.498;2022-12-18T04:05:11;102748.19;;;-2.05;100.00
69784;BME280;57054;51.978;4.498;2022-12-18T04:07:37;102747.22;;;-2.07;100.00
69784;BME280;57054;51.978;4.498;2022-12-18T04:10:03;102745.41;;;-2.10;100.00
69784;BME280;57054;51.978;4.498;2022-12-18T04:12:31;102750.53;;;-2.10;100.00
69784;BME280;57054;51.978;4.498;2022-12-18T04:14:56;102741.91;;;-2.12;100.00
69784;BME280;57054;51.978;4.498;2022-12-18T04:17:22;102747.81;;;-2.15;100.00
69784;BME280;57054;51.978;4.498;2022-12-18T04:19:47;102755.50;;;-2.15;100.00
69784;BME280;57054;51.978;4.498;2022-12-18T04:22:12;102757.09;;;-2.17;100.00
69784;BME280;57054;51.978;4.498;2022-12-18T04:24:38;102760.50;;;-2.18;100.00
69784;BME280;57054;51.978;4.498;2022-12-18T04:27:03;102762.94;;;-2.21;100.00
69784;BME280;57054;51.978;4.498;2022-12-18T04:29:28;102759.41;;;-2.23;100.00
69784;BME280;57054;51.978;4.498;2022-12-18T04:31:54;102756.78;;;-2.24;100.00
69784;BME280;57054;51.978;4.498;2022-12-18T04:34:19;102760.97;;;-2.26;100.00
69784;BME280;57054;51.978;4.498;2022-12-18T04:36:45;102759.16;;;-2.29;100.00
69784;BME280;57054;51.978;4.498;2022-12-18T04:39:10;102759.16;;;-2.29;100.00
69784;BME280;57054;51.978;4.498;2022-12-18T04:41:35;102758.19;;;-2.31;100.00
69784;BME280;57054;51.978;4.498;2022-12-18T04:44:00;102754.75;;;-2.32;100.00
69784;BME280;57054;51.978;4.498;2022-12-18T04:46:26;102760.66;;;-2.34;100.00
69784;BME280;57054;51.978;4.498;2022-12-18T04:48:51;102763.94;;;-2.37;100.00
69784;BME280;57054;51.978;4.498;2022-12-18T04:51:16;102759.63;;;-2.38;100.00
69784;BME280;57054;51.978;4.498;2022-12-18T04:53:42;102763.84;;;-2.40;100.00
69784;BME280;57054;51.978;4.498;2022-12-18T04:56:11;102753.50;;;-2.41;100.00
69784;BME280;57054;51.978;4.498;2022-12-18T04:58:37;102761.13;;;-2.43;100.00
69784;BME280;57054;51.978;4.498;2022-12-18T05:01:03;102755.91;;;-2.44;100.00
69784;BME280;57054;51.978;4.498;2022-12-18T05:03:28;102757.53;;;-2.46;100.00
69784;BME280;57054;51.978;4.498;2022-12-18T05:05:54;102760.03;;;-2.48;100.00
69784;BME280;57054;51.978;4.498;2022-12-18T05:08:19;102754.84;;;-2.49;100.00
69784;BME280;57054;51.978;4.498;2022-12-18T05:10:44;102757.31;;;-2.51;100.00
69784;BME280;57054;51.978;4.498;2022-12-18T05:13:10;102756.38;;;-2.53;100.00
69784;BME280;57054;51.978;4.498;2022-12-18T05:15:35;102752.97;;;-2.54;100.00
69784;BME280;57054;51.978;4.498;2022-12-18T05:18:00;102754.66;;;-2.54;100.00
69784;BME280;57054;51.978;4.498;2022-12-18T05:20:26;102755.38;;;-2.57;100.00
69784;BME280;57054;51.978;4.498;2022-12-18T05:22:52;102741.59;;;-2.59;100.00
69784;BME280;57054;51.978;4.498;2022-12-18T05:25:17;102745.00;;;-2.60;100.00
69784;BME280;57054;51.978;4.498;2022-12-18T05:27:42;102748.28;;;-2.62;100.00
69784;BME280;57054;51.978;4.498;2022-12-18T05:30:08;102744.78;;;-2.64;100.00
69784;BME280;57054;51.978;4.498;2022-12-18T05:32:33;102742.97;;;-2.67;100.00
69784;BME280;57054;51.978;4.498;2022-12-18T05:34:59;102734.38;;;-2.67;100.00
69784;BME280;57054;51.978;4.498;2022-12-18T05:37:24;102736.91;;;-2.69;100.00
69784;BME280;57054;51.978;4.498;2022-12-18T05:39:49;102740.19;;;-2.72;100.00
69784;BME280;57054;51.978;4.498;2022-12-18T05:42:14;102744.38;;;-2.74;100.00
69784;BME280;57054;51.978;4.498;2022-12-18T05:44:40;102740.13;;;-2.73;100.00
69784;BME280;57054;51.978;4.498;2022-12-18T05:47:05;102728.91;;;-2.75;100.00
69784;BME280;57054;51.978;4.498;2022-12-18T05:49:31;102738.31;;;-2.76;100.00
69784;BME280;57054;51.978;4.498;2022-12-18T05:51:56;102735.66;;;-2.77;100.00
69784;BME280;57054;51.978;4.498;2022-12-18T05:54:21;102730.47;;;-2.79;100.00
69784;BME280;57054;51.978;4.498;2022-12-18T05:56:46;102732.97;;;-2.80;100.00
69784;BME280;57054;51.978;4.498;2022-12-18T05:59:12;102732.09;;;-2.81;100.00
69784;BME280;57054;51.978;4.498;2022-12-18T06:01:37;102735.41;;;-2.83;100.00
69784;BME280;57054;51.978;4.498;2022-12-18T06:04:02;102732.84;;;-2.83;100.00
69784;BME280;57054;51.978;4.498;2022-12-18T06:06:28;102740.47;;;-2.85;100.00
69784;BME280;57054;51.978;4.498;2022-12-18T06:08:54;102727.56;;;-2.86;100.00
69784;BME280;57054;51.978;4.498;2022-12-18T06:11:21;102717.31;;;-2.86;100.00
69784;BME280;57054;51.978;4.498;2022-12-18T06:13:46;102715.53;;;-2.87;100.00
69784;BME280;57054;51.978;4.498;2022-12-18T06:16:14;102708.69;;;-2.88;100.00
69784;BME280;57054;51.978;4.498;2022-12-18T06:18:39;102703.56;;;-2.88;100.00
69784;BME280;57054;51.978;4.498;2022-12-18T06:21:04;102695.78;;;-2.90;100.00
69784;BME280;57054;51.978;4.498;2022-12-18T06:23:30;102689.78;;;-2.91;100.00
69784;BME280;57054;51.978;4.498;2022-12-18T06:25:55;102703.41;;;-2.92;100.00
69784;BME280;57054;51.978;4.498;2022-12-18T06:28:20;102710.16;;;-2.94;100.00
69784;BME280;57054;51.978;4.498;2022-12-18T06:30:48;102703.28;;;-2.95;100.00
69784;BME280;57054;51.978;4.498;2022-12-18T06:33:14;102705.84;;;-2.95;100.00
69784;BME280;57054;51.978;4.498;2022-12-18T06:35:40;102702.38;;;-2.95;100.00
69784;BME280;57054;51.978;4.498;2022-12-18T06:38:05;102698.88;;;-2.97;100.00
69784;BME280;57054;51.978;4.498;2022-12-18T06:40:30;102691.13;;;-2.99;100.00
69784;BME280;57054;51.978;4.498;2022-12-18T06:42:56;102680.78;;;-3.00;100.00
69784;BME280;57054;51.978;4.498;2022-12-18T06:45:21;102685.91;;;-3.00;100.00
69784;BME280;57054;51.978;4.498;2022-12-18T06:47:46;102682.34;;;-3.04;100.00
69784;BME280;57054;51.978;4.498;2022-12-18T06:50:12;102679.78;;;-3.04;100.00
69784;BME280;57054;51.978;4.498;2022-12-18T06:52:37;102670.34;;;-3.05;100.00
69784;BME280;57054;51.978;4.498;2022-12-18T06:55:04;102662.59;;;-3.06;100.00
69784;BME280;57054;51.978;4.498;2022-12-18T06:57:29;102655.69;;;-3.08;100.00
69784;BME280;57054;51.978;4.498;2022-12-18T06:59:54;102667.63;;;-3.08;100.00
69784;BME280;57054;51.978;4.498;2022-12-18T07:02:20;102657.31;;;-3.10;100.00
69784;BME280;57054;51.978;4.498;2022-12-18T07:04:45;102655.56;;;-3.11;100.00
69784;BME280;57054;51.978;4.498;2022-12-18T07:07:10;102648.75;;;-3.10;100.00
69784;BME280;57054;51.978;4.498;2022-12-18T07:09:35;102646.97;;;-3.11;100.00
69784;BME280;57054;51.978;4.498;2022-12-18T07:12:01;102653.00;;;-3.11;100.00
69784;BME280;57054;51.978;4.498;2022-12-18T07:14:26;102642.69;;;-3.12;100.00
69784;BME280;57054;51.978;4.498;2022-12-18T07:16:51;102631.50;;;-3.14;100.00
69784;BME280;57054;51.978;4.498;2022-12-18T07:19:17;102619.53;;;-3.14;100.00
69784;BME280;57054;51.978;4.498;2022-12-18T07:21:42;102610.03;;;-3.16;100.00
69784;BME280;57054;51.978;4.498;2022-12-18T07:24:07;102598.97;;;-3.15;100.00
69784;BME280;57054;51.978;4.498;2022-12-18T07:26:32;102588.63;;;-3.17;100.00
69784;BME280;57054;51.978;4.498;2022-12-18T07:28:58;102588.59;;;-3.18;100.00
69784;BME280;57054;51.978;4.498;2022-12-18T07:31:23;102585.13;;;-3.19;100.00
69784;BME280;57054;51.978;4.498;2022-12-18T07:33:49;102584.19;;;-3.21;100.00
69784;BME280;57054;51.978;4.498;2022-12-18T07:36:14;102586.75;;;-3.21;100.00
69784;BME280;57054;51.978;4.498;2022-12-18T07:38:42;102591.03;;;-3.21;100.00
69784;BME280;57054;51.978;4.498;2022-12-18T07:41:09;102598.72;;;-3.21;100.00
69784;BME280;57054;51.978;4.498;2022-12-18T07:43:35;102605.53;;;-3.22;100.00
69784;BME280;57054;51.978;4.498;2022-12-18T07:46:00;102610.66;;;-3.22;100.00
69784;BME280;57054;51.978;4.498;2022-12-18T07:48:26;102610.66;;;-3.22;100.00
69784;BME280;57054;51.978;4.498;2022-12-18T07:50:52;102608.09;;;-3.22;100.00
69784;BME280;57054;51.978;4.498;2022-12-18T07:53:17;102598.72;;;-3.21;100.00
69784;BME280;57054;51.978;4.498;2022-12-18T07:55:42;102591.03;;;-3.21;100.00
69784;BME280;57054;51.978;4.498;2022-12-18T07:58:08;102579.06;;;-3.21;100.00
69784;BME280;57054;51.978;4.498;2022-12-18T08:00:33;102577.38;;;-3.20;100.00
69784;BME280;57054;51.978;4.498;2022-12-18T08:02:59;102590.19;;;-3.20;100.00
69784;BME280;57054;51.978;4.498;2022-12-18T08:05:24;102586.84;;;-3.19;100.00
69784;BME280;57054;51.978;4.498;2022-12-18T08:07:49;102597.09;;;-3.19;100.00
69784;BME280;57054;51.978;4.498;2022-12-18T08:10:15;102582.56;;;-3.19;100.00
69784;BME280;57054;51.978;4.498;2022-12-18T08:12:40;102581.72;;;-3.19;100.00
69784;BME280;57054;51.978;4.498;2022-12-18T08:15:06;102588.59;;;-3.18;100.00
69784;BME280;57054;51.978;4.498;2022-12-18T08:17:31;102585.13;;;-3.19;100.00
69784;BME280;57054;51.978;4.498;2022-12-18T08:19:57;102580.91;;;-3.18;100.00
69784;BME280;57054;51.978;4.498;2022-12-18T08:22:22;102574.03;;;-3.19;100.00
69784;BME280;57054;51.978;4.498;2022-12-18T08:24:47;102578.34;;;-3.18;100.00
69784;BME280;57054;51.978;4.498;2022-12-18T08:27:12;102578.34;;;-3.18;100.00
69784;BME280;57054;51.978;4.498;2022-12-18T08:29:38;102578.34;;;-3.18;100.00
69784;BME280;57054;51.978;4.498;2022-12-18T08:32:03;102576.59;;;-3.19;100.00
69784;BME280;57054;51.978;4.498;2022-12-18T08:34:28;102586.03;;;-3.18;100.00
69784;BME280;57054;51.978;4.498;2022-12-18T08:36:53;102588.59;;;-3.18;100.00
69784;BME280;57054;51.978;4.498;2022-12-18T08:39:19;102583.47;;;-3.18;100.00
69784;BME280;57054;51.978;4.498;2022-12-18T08:41:44;102604.03;;;-3.17;100.00
69784;BME280;57054;51.978;4.498;2022-12-18T08:44:29;102612.59;;;-3.16;100.00
69784;BME280;57054;51.978;4.498;2022-12-18T08:47:04;102609.22;;;-3.15;100.00
69784;BME280;57054;51.978;4.498;2022-12-18T08:49:29;102617.78;;;-3.15;100.00
69784;BME280;57054;51.978;4.498;2022-12-18T08:51:55;102630.59;;;-3.15;100.00
69784;BME280;57054;51.978;4.498;2022-12-18T08:54:22;102633.16;;;-3.15;100.00
69784;BME280;57054;51.978;4.498;2022-12-18T08:56:47;102635.72;;;-3.15;100.00
69784;BME280;57054;51.978;4.498;2022-12-18T08:59:12;102634.84;;;-3.15;100.00
69784;BME280;57054;51.978;4.498;2022-12-18T09:01:37;102636.69;;;-3.13;100.00
69784;BME280;57054;51.978;4.498;2022-12-18T09:04:03;102626.44;;;-3.13;100.00
69784;BME280;57054;51.978;4.498;2022-12-18T09:06:28;102626.47;;;-3.11;100.00
69784;BME280;57054;51.978;4.498;2022-12-18T09:08:53;102628.25;;;-3.10;100.00
69784;BME280;57054;51.978;4.498;2022-12-18T09:11:23;102619.75;;;-3.09;100.00
69784;BME280;57054;51.978;4.498;2022-12-18T09:13:49;102601.81;;;-3.09;100.00
69784;BME280;57054;51.978;4.498;2022-12-18T09:16:15;102598.44;;;-3.08;100.00
69784;BME280;57054;51.978;4.498;2022-12-18T09:18:40;102583.13;;;-3.06;100.00
69784;BME280;57054;51.978;4.498;2022-12-18T09:21:12;102562.53;;;-3.08;100.00
69784;BME280;57054;51.978;4.498;2022-12-18T09:23:38;102559.97;;;-3.08;100.00
69784;BME280;57054;51.978;4.498;2022-12-18T09:26:03;102553.84;;;-3.12;100.00
69784;BME280;57054;51.978;4.498;2022-12-18T09:28:29;102571.00;;;-3.11;100.00
69784;BME280;57054;51.978;4.498;2022-12-18T09:30:54;102576.91;;;-3.12;100.00
69784;BME280;57054;51.978;4.498;2022-12-18T09:33:19;102566.66;;;-3.12;100.00
69784;BME280;57054;51.978;4.498;2022-12-18T09:35:45;102567.59;;;-3.10;100.00
69784;BME280;57054;51.978;4.498;2022-12-18T09:38:15;102572.72;;;-3.10;100.00
69784;BME280;57054;51.978;4.498;2022-12-18T09:40:42;102582.19;;;-3.09;100.00
69784;BME280;57054;51.978;4.498;2022-12-18T09:43:09;102569.44;;;-3.07;100.00
69784;BME280;57054;51.978;4.498;2022-12-18T09:45:43;102571.09;;;-3.08;100.00
69784;BME280;57054;51.978;4.498;2022-12-18T09:48:22;102585.69;;;-3.06;100.00
69784;BME280;57054;51.978;4.498;2022-12-18T09:50:48;102586.63;;;-3.04;100.00
69784;BME280;57054;51.978;4.498;2022-12-18T09:53:16;102594.38;;;-3.03;100.00
69784;BME280;57054;51.978;4.498;2022-12-18T09:55:44;102584.19;;;-3.01;100.00
69784;BME280;57054;51.978;4.498;2022-12-18T09:58:19;102578.31;;;-2.99;100.00
69784;BME280;57054;51.978;4.498;2022-12-18T10:00:45;102574.94;;;-2.98;100.00
69784;BME280;57054;51.978;4.498;2022-12-18T10:03:14;102571.63;;;-2.95;100.00
69784;BME280;57054;51.978;4.498;2022-12-18T10:05:46;102575.13;;;-2.93;100.00
69784;BME280;57054;51.978;4.498;2022-12-18T10:10:53;102556.53;;;-2.89;100.00
69784;BME280;57054;51.978;4.498;2022-12-18T10:16:09;102537.81;;;-2.86;100.00
69784;BME280;57054;51.978;4.498;2022-12-18T10:21:24;102532.81;;;-2.83;100.00
69784;BME280;57054;51.978;4.498;2022-12-18T10:23:54;102529.44;;;-2.82;100.00
69784;BME280;57054;51.978;4.498;2022-12-18T10:26:24;102532.00;;;-2.82;100.00
69784;BME280;57054;51.978;4.498;2022-12-18T10:28:50;102528.63;;;-2.81;100.00
69784;BME280;57054;51.978;4.498;2022-12-18T10:31:20;102521.75;;;-2.82;100.00
69784;BME280;57054;51.978;4.498;2022-12-18T10:33:45;102524.31;;;-2.82;100.00
69784;BME280;57054;51.978;4.498;2022-12-18T10:36:11;102531.19;;;-2.81;100.00
69784;BME280;57054;51.978;4.498;2022-12-18T10:38:36;102531.25;;;-2.80;100.00
69784;BME280;57054;51.978;4.498;2022-12-18T10:41:02;102531.34;;;-2.78;100.00
69784;BME280;57054;51.978;4.498;2022-12-18T10:43:38;102519.44;;;-2.76;100.00
69784;BME280;57054;51.978;4.498;2022-12-18T10:48:33;102521.06;;;-2.78;100.00
69784;BME280;57054;51.978;4.498;2022-12-18T10:50:59;102522.00;;;-2.76;100.00
69784;BME280;57054;51.978;4.498;2022-12-18T10:53:28;102525.44;;;-2.76;100.00
69784;BME280;57054;51.978;4.498;2022-12-18T10:55:55;102523.00;;;-2.73;100.00
69784;BME280;57054;51.978;4.498;2022-12-18T10:58:28;102516.19;;;-2.72;100.00
69784;BME280;57054;51.978;4.498;2022-12-18T11:01:01;102511.00;;;-2.74;100.00
69784;BME280;57054;51.978;4.498;2022-12-18T11:03:31;102519.63;;;-2.72;100.00
69784;BME280;57054;51.978;4.498;2022-12-18T11:06:11;102517.97;;;-2.70;100.00
69784;BME280;57054;51.978;4.498;2022-12-18T11:08:36;102507.88;;;-2.66;100.00
69784;BME280;57054;51.978;4.498;2022-12-18T11:11:02;102507.94;;;-2.65;100.00
69784;BME280;57054;51.978;4.498;2022-12-18T11:13:29;102498.66;;;-2.61;100.00
69784;BME280;57054;51.978;4.498;2022-12-18T11:15:55;102507.22;;;-2.61;100.00
69784;BME280;57054;51.978;4.498;2022-12-18T11:20:56;102509.16;;;-2.55;100.00
69784;BME280;57054;51.978;4.498;2022-12-18T11:23:22;102504.94;;;-2.55;100.00
69784;BME280;57054;51.978;4.498;2022-12-18T11:25:59;102485.28;;;-2.54;100.00
69784;BME280;57054;51.978;4.498;2022-12-18T11:28:40;102484.44;;;-2.53;100.00
69784;BME280;57054;51.978;4.498;2022-12-18T11:31:23;102487.91;;;-2.53;100.00
69784;BME280;57054;51.978;4.498;2022-12-18T11:33:51;102486.28;;;-2.51;100.00
69784;BME280;57054;51.978;4.498;2022-12-18T11:36:18;102481.22;;;-2.49;100.00
69784;BME280;57054;51.978;4.498;2022-12-18T11:38:43;102482.94;;;-2.48;100.00
69784;BME280;57054;51.978;4.498;2022-12-18T11:43:50;102465.16;;;-2.43;100.00
69784;BME280;57054;51.978;4.498;2022-12-18T11:46:39;102453.16;;;-2.44;100.00
69784;BME280;57054;51.978;4.498;2022-12-18T11:49:06;102436.94;;;-2.43;100.00
69784;BME280;57054;51.978;4.498;2022-12-18T11:51:56;102431.88;;;-2.42;100.00
69784;BME280;57054;51.978;4.498;2022-12-18T11:54:19;102421.66;;;-2.40;100.00
69784;BME280;57054;51.978;4.498;2022-12-18T11:56:51;102421.78;;;-2.37;100.00
69784;BME280;57054;51.978;4.498;2022-12-18T12:02:15;102408.34;;;-2.30;100.00
69784;BME280;57054;51.978;4.498;2022-12-18T12:04:56;102405.00;;;-2.27;100.00
69784;BME280;57054;51.978;4.498;2022-12-18T12:20:35;102395.16;;;-2.17;100.00
69784;BME280;57054;51.978;4.498;2022-12-18T12:23:22;102389.09;;;-2.19;100.00
69784;BME280;57054;51.978;4.498;2022-12-18T12:25:59;102391.72;;;-2.17;100.00
69784;BME280;57054;51.978;4.498;2022-12-18T12:28:36;102388.34;;;-2.16;100.00
69784;BME280;57054;51.978;4.498;2022-12-18T12:38:37;102385.28;;;-2.06;100.00
69784;BME280;57054;51.978;4.498;2022-12-18T12:41:06;102381.97;;;-2.03;100.00
69784;BME280;57054;51.978;4.498;2022-12-18T12:43:53;102372.63;;;-2.01;100.00
69784;BME280;57054;51.978;4.498;2022-12-18T12:46:21;102376.09;;;-1.99;100.00
69784;BME280;57054;51.978;4.498;2022-12-18T12:48:49;102367.63;;;-1.97;100.00
69784;BME280;57054;51.978;4.498;2022-12-18T12:51:19;102369.38;;;-1.96;100.00
69784;BME280;57054;51.978;4.498;2022-12-18T12:53:45;102366.88;;;-1.94;100.00
69784;BME280;57054;51.978;4.498;2022-12-18T12:56:11;102365.22;;;-1.92;100.00
69784;BME280;57054;51.978;4.498;2022-12-18T12:58:43;102360.16;;;-1.90;100.00
69784;BME280;57054;51.978;4.498;2022-12-18T13:04:02;102331.13;;;-1.88;100.00
69784;BME280;57054;51.978;4.498;2022-12-18T13:06:37;102338.09;;;-1.85;100.00
69784;BME280;57054;51.978;4.498;2022-12-18T13:09:05;102332.09;;;-1.84;100.00
69784;BME280;57054;51.978;4.498;2022-12-18T13:11:35;102330.47;;;-1.82;100.00
69784;BME280;57054;51.978;4.498;2022-12-18T13:14:23;102333.09;;;-1.81;100.00
69784;BME280;57054;51.978;4.498;2022-12-18T13:16:49;102322.00;;;-1.80;100.00
69784;BME280;57054;51.978;4.498;2022-12-18T13:19:21;102321.22;;;-1.77;100.00
69784;BME280;57054;51.978;4.498;2022-12-18T13:21:52;102323.78;;;-1.77;100.00
69784;BME280;57054;51.978;4.498;2022-12-18T13:24:27;102322.09;;;-1.77;100.00
69784;BME280;57054;51.978;4.498;2022-12-18T13:26:55;102319.56;;;-1.75;100.00
69784;BME280;57054;51.978;4.498;2022-12-18T13:32:16;102295.72;;;-1.72;100.00
69784;BME280;57054;51.978;4.498;2022-12-18T13:34:43;102288.91;;;-1.70;100.00
69784;BME280;57054;51.978;4.498;2022-12-18T13:39:52;102278.69;;;-1.69;100.00
69784;BME280;57054;51.978;4.498;2022-12-18T13:45:29;102266.81;;;-1.65;100.00
69784;BME280;57054;51.978;4.498;2022-12-18T13:47:48;102270.25;;;-1.65;100.00
69784;BME280;57054;51.978;4.498;2022-12-18T13:50:23;102277.97;;;-1.65;100.00
69784;BME280;57054;51.978;4.498;2022-12-18T13:52:49;102275.50;;;-1.62;100.00